Time;durP1;ratioP1;P1;durP2;ratioP2;P2;SDS_P1;SDS_P2;PMS_P1;PMS_P2;Temp;Humidity;BMP_temperature;BMP_pressure;BME280_temperature;BME280_humidity;BME280_pressure;Samples;Min_cycle;Max_cycle;Signal;HPM_P1;HPM_P2
2023/08/13 00:02:06;;;;;;;5.17;4.67;;;21.50;99.90;;;;;;6335525;22;20182;-43
2023/08/13 00:04:31;;;;;;;4.90;4.40;;;21.50;99.90;;;;;;6307949;22;20515;-41
2023/08/13 00:06:59;;;;;;;4.50;4.10;;;21.40;99.90;;;;;;6337227;22;20147;-39
2023/08/13 00:09:25;;;;;;;5.00;4.60;;;21.40;99.90;;;;;;6336959;22;20128;-40
2023/08/13 00:11:51;;;;;;;5.53;5.13;;;21.30;99.90;;;;;;6339741;22;20369;-41
2023/08/13 00:14:17;;;;;;;5.37;4.80;;;21.30;99.90;;;;;;6337668;22;20443;-40
2023/08/13 00:16:44;;;;;;;6.00;4.63;;;21.30;99.90;;;;;;6337369;22;20415;-40
2023/08/13 00:19:09;;;;;;;5.43;4.87;;;21.30;99.90;;;;;;6338851;22;20159;-39
2023/08/13 00:21:35;;;;;;;5.97;4.80;;;21.30;99.90;;;;;;6340626;22;20366;-41
2023/08/13 00:24:01;;;;;;;8.83;4.97;;;21.30;99.90;;;;;;6340775;22;20769;-42
2023/08/13 00:26:27;;;;;;;4.90;4.50;;;21.30;99.90;;;;;;6312923;22;20381;-38
2023/08/13 00:28:52;;;;;;;4.93;4.43;;;21.30;99.90;;;;;;6340662;22;20158;-39
2023/08/13 00:31:18;;;;;;;7.97;4.90;;;21.30;99.90;;;;;;6311276;22;20163;-38
2023/08/13 00:33:43;;;;;;;5.60;5.10;;;21.30;99.90;;;;;;6312223;22;20456;-41
2023/08/13 00:36:09;;;;;;;6.60;4.97;;;21.20;99.90;;;;;;6337387;22;20131;-39
2023/08/13 00:38:35;;;;;;;5.80;5.40;;;21.20;99.90;;;;;;6338068;22;20143;-39
2023/08/13 00:41:00;;;;;;;6.80;5.10;;;21.20;99.90;;;;;;6337776;22;20463;-40
2023/08/13 00:43:26;;;;;;;5.50;4.47;;;21.10;99.90;;;;;;6336941;22;20147;-40
2023/08/13 00:45:52;;;;;;;4.87;4.37;;;21.10;99.90;;;;;;6311265;22;20197;-39
2023/08/13 00:48:17;;;;;;;5.17;4.50;;;21.10;99.90;;;;;;6284365;22;20143;-38
2023/08/13 00:50:45;;;;;;;4.53;4.13;;;21.10;99.90;;;;;;6337417;22;20553;-39
2023/08/13 00:53:12;;;;;;;5.57;4.97;;;21.10;99.90;;;;;;6339608;22;20381;-40
2023/08/13 00:55:38;;;;;;;7.47;6.17;;;21.10;99.90;;;;;;6340633;22;20384;-39
2023/08/13 00:58:03;;;;;;;5.63;5.13;;;21.10;99.90;;;;;;6340568;22;20867;-40
2023/08/13 01:00:30;;;;;;;5.67;5.03;;;21.10;99.90;;;;;;6341263;22;20362;-39
2023/08/13 01:02:56;;;;;;;5.83;5.20;;;21.10;99.90;;;;;;6341833;22;20807;-40
2023/08/13 01:05:33;;;;;;;5.40;5.00;;;21.00;99.90;;;;;;6341023;22;20770;-40
2023/08/13 01:08:11;;;;;;;7.40;4.60;;;21.00;99.90;;;;;;6314047;22;20484;-40
2023/08/13 01:10:37;;;;;;;5.30;4.80;;;21.00;99.90;;;;;;6340223;22;20522;-41
2023/08/13 01:13:23;;;;;;;9.50;5.10;;;21.00;99.90;;;;;;6313147;22;20385;-44
2023/08/13 01:15:51;;;;;;;7.63;5.50;;;21.00;99.90;;;;;;6313080;22;20369;-40
2023/08/13 01:18:18;;;;;;;4.87;4.47;;;20.90;99.90;;;;;;6338455;22;20380;-38
2023/08/13 01:20:45;;;;;;;5.23;4.73;;;20.90;99.90;;;;;;6340730;22;20377;-39
2023/08/13 01:23:10;;;;;;;4.83;4.23;;;20.90;99.90;;;;;;6341153;22;20790;-40
2023/08/13 01:25:36;;;;;;;6.23;5.70;;;20.90;99.90;;;;;;6340212;22;20704;-39
2023/08/13 01:28:20;;;;;;;5.03;4.63;;;20.90;99.90;;;;;;6341689;22;20151;-42
2023/08/13 01:30:50;;;;;;;7.70;5.83;;;20.90;99.90;;;;;;6342487;22;20361;-38
2023/08/13 01:33:28;;;;;;;6.00;4.80;;;20.90;99.90;;;;;;6314811;22;20357;-40
2023/08/13 01:35:58;;;;;;;5.27;4.87;;;20.80;99.90;;;;;;6342872;22;20791;-40
2023/08/13 01:38:25;;;;;;;5.57;5.07;;;20.80;99.90;;;;;;6342488;22;20393;-42
2023/08/13 01:40:51;;;;;;;5.33;4.93;;;20.70;99.90;;;;;;6340313;22;20381;-38
2023/08/13 01:43:17;;;;;;;5.97;5.47;;;20.70;99.90;;;;;;6341690;22;20389;-38
2023/08/13 01:45:43;;;;;;;5.90;5.30;;;20.70;99.90;;;;;;6342065;22;20487;-38
2023/08/13 01:48:09;;;;;;;6.10;5.50;;;20.70;99.90;;;;;;6340705;22;20448;-41
2023/08/13 01:50:37;;;;;;;5.20;4.80;;;20.70;99.90;;;;;;6342000;22;20468;-39
2023/08/13 01:53:03;;;;;;;5.20;4.77;;;20.70;99.90;;;;;;6339982;22;20482;-40
2023/08/13 01:55:28;;;;;;;5.53;4.80;;;20.70;99.90;;;;;;6338726;22;20381;-38
2023/08/13 01:57:54;;;;;;;4.73;4.23;;;20.80;99.90;;;;;;6338599;22;20580;-39
2023/08/13 02:00:20;;;;;;;4.70;4.30;;;20.80;99.90;;;;;;6338732;22;20131;-38
2023/08/13 02:02:46;;;;;;;5.80;5.30;;;20.80;99.90;;;;;;6339569;22;20180;-39
2023/08/13 02:05:11;;;;;;;5.20;4.70;;;20.90;99.90;;;;;;6339271;22;20421;-39
2023/08/13 02:07:37;;;;;;;7.27;5.37;;;20.90;99.90;;;;;;6339002;22;20153;-42
2023/08/13 02:10:03;;;;;;;6.93;5.50;;;20.90;99.90;;;;;;6339713;22;20155;-42
2023/08/13 02:12:29;;;;;;;5.70;5.20;;;20.80;99.90;;;;;;6340704;22;20139;-40
2023/08/13 02:14:54;;;;;;;6.60;5.90;;;20.90;99.90;;;;;;6340308;22;20242;-39
2023/08/13 02:17:20;;;;;;;5.33;4.93;;;20.80;99.90;;;;;;6340293;22;20617;-41
2023/08/13 02:19:46;;;;;;;7.67;5.23;;;20.90;99.90;;;;;;6339281;22;20147;-40
2023/08/13 02:22:11;;;;;;;4.70;4.30;;;20.90;99.90;;;;;;6310034;22;20157;-41
2023/08/13 02:24:37;;;;;;;4.57;4.17;;;20.90;99.90;;;;;;6312519;22;20163;-39
2023/08/13 02:27:03;;;;;;;6.67;5.27;;;21.00;99.90;;;;;;6339780;22;20182;-41
2023/08/13 02:29:28;;;;;;;5.47;4.97;;;21.00;99.90;;;;;;6339124;22;20322;-39
2023/08/13 02:31:54;;;;;;;5.30;4.90;;;21.00;99.90;;;;;;6340640;22;20381;-38
2023/08/13 02:34:20;;;;;;;6.20;5.60;;;20.90;99.90;;;;;;6341815;22;20158;-39
2023/08/13 02:36:46;;;;;;;5.63;5.20;;;20.90;99.90;;;;;;6340728;22;20139;-41
2023/08/13 02:39:11;;;;;;;7.37;5.37;;;20.90;99.90;;;;;;6341262;22;20661;-38
2023/08/13 02:41:37;;;;;;;6.07;5.30;;;20.90;99.90;;;;;;6341808;22;20517;-39
2023/08/13 02:44:03;;;;;;;5.10;4.70;;;20.90;99.90;;;;;;6340982;22;20186;-39
2023/08/13 02:46:29;;;;;;;5.83;5.33;;;20.90;99.90;;;;;;6342149;22;20147;-38
2023/08/13 02:48:54;;;;;;;5.73;5.27;;;20.80;99.90;;;;;;6341578;22;20147;-42
2023/08/13 02:51:21;;;;;;;5.00;4.60;;;20.80;99.90;;;;;;6340990;22;20127;-37
2023/08/13 02:53:47;;;;;;;5.30;4.90;;;20.90;99.90;;;;;;6339610;22;20390;-37
2023/08/13 02:56:12;;;;;;;6.20;5.20;;;20.90;99.90;;;;;;6339687;22;20468;-36
2023/08/13 02:58:38;;;;;;;5.83;5.37;;;20.80;99.90;;;;;;6340159;22;20147;-38
2023/08/13 03:01:04;;;;;;;4.80;4.43;;;20.80;99.90;;;;;;6340432;22;20423;-38
2023/08/13 03:03:30;;;;;;;6.30;5.70;;;20.80;99.90;;;;;;6340544;22;20128;-38
2023/08/13 03:05:56;;;;;;;5.60;5.20;;;20.70;99.90;;;;;;6340268;22;20171;-39
2023/08/13 03:08:22;;;;;;;6.37;5.00;;;20.80;99.90;;;;;;6339316;22;20630;-38
2023/08/13 03:10:48;;;;;;;4.53;4.17;;;20.80;99.90;;;;;;6338217;22;20377;-37
2023/08/13 03:13:13;;;;;;;5.77;5.27;;;20.80;99.90;;;;;;6335539;22;20197;-38
2023/08/13 03:15:39;;;;;;;5.13;4.73;;;20.90;99.90;;;;;;6338087;22;20182;-39
2023/08/13 03:18:05;;;;;;;5.80;5.30;;;20.90;99.90;;;;;;6338314;22;20407;-38
2023/08/13 03:20:31;;;;;;;5.17;4.77;;;20.90;99.90;;;;;;6340011;22;20216;-37
2023/08/13 03:22:56;;;;;;;6.10;5.50;;;20.90;99.90;;;;;;6339569;22;20154;-38
2023/08/13 03:25:22;;;;;;;6.13;5.63;;;21.00;99.90;;;;;;6339424;22;20268;-39
2023/08/13 03:27:48;;;;;;;5.40;4.90;;;20.90;99.90;;;;;;6338962;22;20147;-37
2023/08/13 03:30:14;;;;;;;6.13;5.63;;;21.00;99.90;;;;;;6338691;22;20135;-38
2023/08/13 03:32:40;;;;;;;5.37;4.87;;;21.00;99.90;;;;;;6338450;22;20721;-37
2023/08/13 03:35:06;;;;;;;5.40;5.00;;;21.00;99.90;;;;;;6337965;22;20377;-37
2023/08/13 03:37:31;;;;;;;5.73;5.23;;;21.00;99.90;;;;;;6338337;22;20151;-39
2023/08/13 03:39:57;;;;;;;5.67;5.17;;;21.00;99.90;;;;;;6338424;22;20226;-39
2023/08/13 03:42:23;;;;;;;5.97;4.93;;;21.00;99.90;;;;;;6337942;22;20418;-38
2023/08/13 03:44:48;;;;;;;5.77;5.27;;;21.00;99.90;;;;;;6339495;22;20171;-37
2023/08/13 03:47:14;;;;;;;5.47;4.60;;;20.90;99.90;;;;;;6313009;22;20153;-36
2023/08/13 03:49:40;;;;;;;5.70;5.20;;;21.00;99.90;;;;;;6312786;22;20599;-39
2023/08/13 03:52:06;;;;;;;5.43;5.03;;;20.90;99.90;;;;;;6339898;22;20400;-38
2023/08/13 03:54:31;;;;;;;6.60;5.33;;;20.90;99.90;;;;;;6340744;22;20132;-38
2023/08/13 03:56:57;;;;;;;5.20;4.80;;;20.90;99.90;;;;;;6339276;22;20200;-38
2023/08/13 03:59:23;;;;;;;6.50;5.47;;;20.90;99.90;;;;;;6340728;22;20187;-38
2023/08/13 04:01:49;;;;;;;6.37;5.77;;;20.90;99.90;;;;;;6340750;22;20151;-41
2023/08/13 04:04:14;;;;;;;5.93;5.47;;;20.90;99.90;;;;;;6341031;22;20179;-41
2023/08/13 04:06:40;;;;;;;7.03;6.33;;;20.90;99.90;;;;;;6340427;22;20215;-39
2023/08/13 04:09:06;;;;;;;5.80;5.30;;;20.90;99.90;;;;;;6341870;22;20128;-39
2023/08/13 04:11:31;;;;;;;6.30;5.70;;;20.90;99.90;;;;;;6342323;22;20143;-41
2023/08/13 04:13:57;;;;;;;6.20;5.70;;;20.90;99.90;;;;;;6341672;22;20433;-41
2023/08/13 04:16:23;;;;;;;7.23;5.97;;;20.90;99.90;;;;;;6341597;22;20530;-39
2023/08/13 04:18:50;;;;;;;6.00;5.50;;;20.80;99.90;;;;;;6339972;22;20234;-38
2023/08/13 04:21:16;;;;;;;7.13;5.70;;;20.80;99.90;;;;;;6341848;22;20771;-41
2023/08/13 04:23:42;;;;;;;7.03;6.43;;;20.80;99.90;;;;;;6342568;22;20384;-41
2023/08/13 04:26:07;;;;;;;6.47;5.87;;;20.80;99.90;;;;;;6343305;22;20385;-40
2023/08/13 04:28:33;;;;;;;6.67;5.77;;;20.80;99.90;;;;;;6341231;22;20158;-41
2023/08/13 04:30:59;;;;;;;6.40;5.80;;;20.90;99.90;;;;;;6340992;22;20154;-41
2023/08/13 04:33:24;;;;;;;8.00;5.67;;;20.90;99.90;;;;;;6313051;22;20358;-40
2023/08/13 04:35:54;;;;;;;6.50;5.90;;;20.90;99.90;;;;;;6339161;22;20147;-43
2023/08/13 04:38:20;;;;;;;6.33;5.83;;;20.90;99.90;;;;;;6339673;22;20182;-44
2023/08/13 04:40:47;;;;;;;5.43;4.93;;;20.90;99.90;;;;;;6313787;22;20381;-42
2023/08/13 04:43:14;;;;;;;6.13;5.70;;;20.90;99.90;;;;;;6340653;22;20389;-40
2023/08/13 04:45:39;;;;;;;7.70;7.00;;;21.00;99.90;;;;;;6338920;22;20495;-39
2023/08/13 04:48:05;;;;;;;8.00;7.20;;;20.90;99.90;;;;;;6337888;22;20369;-42
2023/08/13 04:50:31;;;;;;;7.30;6.73;;;20.70;99.90;;;;;;6338374;22;20143;-41
2023/08/13 04:52:56;;;;;;;8.20;7.50;;;20.60;99.90;;;;;;6339491;22;20215;-43
2023/08/13 04:55:22;;;;;;;7.70;6.93;;;20.50;1.00;;;;;;6339680;22;20178;-40
2023/08/13 04:57:47;;;;;;;6.80;6.20;;;20.50;1.00;;;;;;6339281;22;20500;-41
2023/08/13 05:00:14;;;;;;;6.90;6.30;;;20.50;1.00;;;;;;6340636;22;20272;-41
2023/08/13 05:02:39;;;;;;;7.90;7.30;;;20.60;1.00;;;;;;6340137;22;20426;-43
2023/08/13 05:05:05;;;;;;;7.60;7.00;;;20.60;1.00;;;;;;6341302;22;20433;-42
2023/08/13 05:07:31;;;;;;;7.57;6.87;;;20.60;1.00;;;;;;6341444;22;20147;-42
2023/08/13 05:09:57;;;;;;;7.40;6.47;;;20.60;1.00;;;;;;6341219;22;20699;-43
2023/08/13 05:12:22;;;;;;;6.90;6.30;;;20.60;1.00;;;;;;6341355;22;20128;-41
2023/08/13 05:14:48;;;;;;;5.67;5.23;;;20.60;1.00;;;;;;6341135;22;20217;-43
2023/08/13 05:17:21;;;;;;;7.53;6.10;;;20.60;1.00;;;;;;6338518;22;20252;-41
2023/08/13 05:19:46;;;;;;;6.87;6.37;;;20.60;1.00;;;;;;6337566;22;20222;-41
2023/08/13 05:22:12;;;;;;;7.27;6.70;;;20.60;1.00;;;;;;6337573;22;20408;-42
2023/08/13 05:24:38;;;;;;;7.17;6.63;;;20.60;1.00;;;;;;6310434;22;20666;-41
2023/08/13 05:27:04;;;;;;;7.13;6.43;;;20.60;1.00;;;;;;6336687;22;20147;-41
2023/08/13 05:29:29;;;;;;;6.57;6.07;;;20.60;1.00;;;;;;6335662;22;20143;-42
2023/08/13 05:31:55;;;;;;;7.80;7.10;;;20.60;1.00;;;;;;6309264;22;20155;-43
2023/08/13 05:34:21;;;;;;;6.80;6.30;;;20.70;1.00;;;;;;6338986;22;20157;-40
2023/08/13 05:36:46;;;;;;;7.67;7.07;;;20.70;1.00;;;;;;6339639;22;20222;-41
2023/08/13 05:39:12;;;;;;;6.80;6.30;;;20.70;1.00;;;;;;6338050;22;20370;-44
2023/08/13 05:41:38;;;;;;;6.43;5.93;;;20.70;1.00;;;;;;6338839;22;20180;-44
2023/08/13 05:44:03;;;;;;;8.27;7.47;;;20.80;1.00;;;;;;6338303;22;20182;-42
2023/08/13 05:46:29;;;;;;;7.33;6.63;;;20.80;1.00;;;;;;6340039;22;20140;-42
2023/08/13 05:48:55;;;;;;;6.00;5.50;;;20.80;1.00;;;;;;6340533;22;20148;-44
2023/08/13 05:51:22;;;;;;;6.90;6.40;;;20.80;1.00;;;;;;6311727;22;20511;-42
2023/08/13 05:53:48;;;;;;;7.60;7.00;;;20.80;1.00;;;;;;6340534;22;20161;-43
2023/08/13 05:56:13;;;;;;;8.00;7.40;;;20.80;99.90;;;;;;6340460;22;20377;-40
2023/08/13 05:58:39;;;;;;;6.40;5.90;;;20.80;99.90;;;;;;6339411;22;20527;-39
2023/08/13 06:01:05;;;;;;;6.63;6.13;;;20.80;1.00;;;;;;6340697;22;20181;-43
2023/08/13 06:03:30;;;;;;;7.10;6.50;;;20.90;1.00;;;;;;6338335;22;20161;-41
2023/08/13 06:05:56;;;;;;;6.50;5.80;;;20.90;1.00;;;;;;6337259;22;20171;-42
2023/08/13 06:08:23;;;;;;;6.07;5.43;;;21.00;99.90;;;;;;6338096;22;20155;-43
2023/08/13 06:10:48;;;;;;;6.60;5.97;;;21.10;99.90;;;;;;6336855;22;20397;-40
2023/08/13 06:13:14;;;;;;;8.50;7.80;;;21.10;99.90;;;;;;6335358;22;20712;-47
2023/08/13 06:15:39;;;;;;;7.60;7.00;;;21.10;99.90;;;;;;6336945;22;20132;-44
2023/08/13 06:18:05;;;;;;;6.07;5.67;;;21.20;99.90;;;;;;6338640;22;20525;-40
2023/08/13 06:20:31;;;;;;;5.83;5.43;;;21.10;99.90;;;;;;6339016;22;20178;-44
2023/08/13 06:22:57;;;;;;;5.80;5.30;;;21.00;99.90;;;;;;6338988;22;20571;-41
2023/08/13 06:25:22;;;;;;;6.70;6.17;;;21.10;99.90;;;;;;6338933;22;20258;-42
2023/08/13 06:27:48;;;;;;;6.67;6.17;;;21.10;99.90;;;;;;6340322;22;20131;-40
2023/08/13 06:30:14;;;;;;;6.67;6.13;;;21.20;99.90;;;;;;6338899;22;20162;-42
2023/08/13 06:32:39;;;;;;;7.30;6.80;;;21.20;99.90;;;;;;6339407;22;20510;-43
2023/08/13 06:35:05;;;;;;;7.20;6.70;;;21.10;99.90;;;;;;6340785;22;20222;-43
2023/08/13 06:37:31;;;;;;;6.57;5.37;;;21.00;99.90;;;;;;6339863;22;20147;-44
2023/08/13 06:39:57;;;;;;;6.00;5.50;;;21.00;1.00;;;;;;6338444;22;20686;-41
2023/08/13 06:42:23;;;;;;;6.97;5.97;;;20.90;1.00;;;;;;6337940;22;20396;-43
2023/08/13 06:44:49;;;;;;;5.90;5.40;;;21.00;1.00;;;;;;6339081;22;20443;-43
2023/08/13 06:47:15;;;;;;;6.10;5.60;;;21.00;1.00;;;;;;6339341;22;20435;-42
2023/08/13 06:49:40;;;;;;;6.20;5.70;;;21.10;1.00;;;;;;6338247;22;20680;-41
2023/08/13 06:52:06;;;;;;;5.77;5.27;;;21.20;1.00;;;;;;6339132;22;20586;-40
2023/08/13 06:54:32;;;;;;;6.10;5.60;;;21.20;99.90;;;;;;6339160;22;20213;-41
2023/08/13 06:56:59;;;;;;;6.47;5.73;;;21.20;99.90;;;;;;6339842;22;20468;-44
2023/08/13 06:59:24;;;;;;;7.43;6.80;;;21.30;99.90;;;;;;6337353;22;20706;-41
2023/08/13 07:01:50;;;;;;;7.23;6.63;;;21.30;99.90;;;;;;6338840;22;20385;-42
2023/08/13 07:04:16;;;;;;;11.63;6.43;;;21.30;99.90;;;;;;6339814;22;20230;-40
2023/08/13 07:06:41;;;;;;;6.43;5.97;;;21.20;99.90;;;;;;6339625;22;20202;-43
2023/08/13 07:09:07;;;;;;;7.00;6.40;;;21.20;99.90;;;;;;6339873;22;20518;-41
2023/08/13 07:11:33;;;;;;;6.90;6.30;;;21.20;99.90;;;;;;6338314;22;20147;-41
2023/08/13 07:13:59;;;;;;;7.77;7.03;;;21.20;99.90;;;;;;6340436;22;20209;-45
2023/08/13 07:16:24;;;;;;;6.70;6.10;;;21.20;99.90;;;;;;6339947;22;20381;-42
2023/08/13 07:18:50;;;;;;;5.93;5.53;;;21.20;99.90;;;;;;6339519;22;20163;-42
2023/08/13 07:21:16;;;;;;;5.87;5.37;;;21.30;1.00;;;;;;6339696;22;20522;-44
2023/08/13 07:23:42;;;;;;;7.03;6.13;;;21.30;1.00;;;;;;6338948;22;20644;-41
2023/08/13 07:26:07;;;;;;;6.67;6.07;;;21.40;99.90;;;;;;6339828;22;20190;-42
2023/08/13 07:28:34;;;;;;;5.97;5.47;;;21.50;99.90;;;;;;6339459;22;20431;-41
2023/08/13 07:31:03;;;;;;;5.93;5.33;;;21.50;99.90;;;;;;6339310;22;20668;-40
2023/08/13 07:33:33;;;;;;;6.03;5.43;;;21.60;99.90;;;;;;6338948;22;20594;-43
2023/08/13 07:36:02;;;;;;;5.67;5.17;;;21.60;99.90;;;;;;6338304;22;20404;-40
2023/08/13 07:38:28;;;;;;;4.90;4.50;;;21.60;99.90;;;;;;6335447;22;20709;-41
2023/08/13 07:40:58;;;;;;;6.33;4.70;;;21.70;99.90;;;;;;6335035;22;20472;-40
2023/08/13 07:43:24;;;;;;;4.83;4.40;;;21.70;99.90;;;;;;6335518;22;20227;-42
2023/08/13 07:45:50;;;;;;;4.70;4.40;;;21.80;99.90;;;;;;6335508;22;20453;-43
2023/08/13 07:48:17;;;;;;;5.97;5.10;;;21.90;99.90;;;;;;6336973;22;20889;-44
2023/08/13 07:50:43;;;;;;;4.93;4.43;;;22.10;99.90;;;;;;6336773;22;20668;-44
2023/08/13 07:53:09;;;;;;;4.27;3.87;;;22.20;23.30;;;;;;6335158;22;20472;-41
2023/08/13 07:55:34;;;;;;;5.23;4.73;;;22.30;50.10;;;;;;6334107;22;20159;-44
2023/08/13 07:58:00;;;;;;;4.77;4.37;;;22.40;1.00;;;;;;6335715;22;20381;-42
2023/08/13 08:00:26;;;;;;;4.77;4.37;;;22.40;1.00;;;;;;6336110;22;20132;-41
2023/08/13 08:02:53;;;;;;;4.53;4.13;;;22.50;1.00;;;;;;6337319;22;20557;-43
2023/08/13 08:05:19;;;;;;;4.87;4.47;;;22.60;1.00;;;;;;6335658;22;20433;-44
2023/08/13 08:07:45;;;;;;;5.13;4.63;;;22.60;1.00;;;;;;6336423;22;20377;-40
2023/08/13 08:10:12;;;;;;;4.17;3.87;;;22.70;1.00;;;;;;6339769;22;20638;-42
2023/08/13 08:12:37;;;;;;;5.40;4.40;;;22.70;1.00;;;;;;6339040;22;20449;-41
2023/08/13 08:15:04;;;;;;;5.00;4.60;;;22.70;1.00;;;;;;6337512;22;20469;-39
2023/08/13 08:17:30;;;;;;;8.00;4.70;;;22.80;1.00;;;;;;6339103;22;20147;-44
2023/08/13 08:19:56;;;;;;;5.07;4.20;;;23.00;1.00;;;;;;6338393;22;20720;-40
2023/08/13 08:22:22;;;;;;;4.30;3.90;;;23.10;1.00;;;;;;6340134;22;20151;-42
2023/08/13 08:24:48;;;;;;;4.87;4.30;;;23.40;1.00;;;;;;6338588;22;20496;-46
2023/08/13 08:27:13;;;;;;;4.77;4.37;;;23.70;99.90;;;;;;6336797;22;20146;-44
2023/08/13 08:29:39;;;;;;;4.63;4.20;;;23.70;99.90;;;;;;6338158;22;20469;-43
2023/08/13 08:32:04;;;;;;;5.17;4.73;;;23.60;99.90;;;;;;6336208;22;20221;-42
2023/08/13 08:34:30;;;;;;;4.53;4.13;;;23.60;99.90;;;;;;6336835;22;20148;-42
2023/08/13 08:36:56;;;;;;;5.80;5.30;;;23.50;99.90;;;;;;6336787;22;20334;-40
2023/08/13 08:39:22;;;;;;;6.13;4.30;;;23.40;99.90;;;;;;6309941;22;20127;-42
2023/08/13 08:41:49;;;;;;;4.77;4.37;;;23.40;99.90;;;;;;6310663;22;20407;-41
2023/08/13 08:44:27;;;;;;;5.60;4.90;;;23.40;99.90;;;;;;6339460;22;20486;-40
2023/08/13 08:46:53;;;;;;;6.07;5.57;;;23.40;99.90;;;;;;6341430;22;20404;-41
2023/08/13 08:49:23;;;;;;;5.10;4.70;;;23.40;99.90;;;;;;6340006;22;20381;-43
2023/08/13 08:51:50;;;;;;;5.63;5.13;;;23.40;99.90;;;;;;6340622;22;20668;-39
2023/08/13 08:54:18;;;;;;;5.27;4.63;;;23.40;99.90;;;;;;6313945;22;20384;-41
2023/08/13 08:56:44;;;;;;;5.37;4.97;;;23.40;99.90;;;;;;6312888;22;20381;-41
2023/08/13 08:59:10;;;;;;;4.33;4.03;;;23.40;99.90;;;;;;6340847;22;20811;-40
2023/08/13 09:01:36;;;;;;;5.50;5.00;;;23.50;99.90;;;;;;6341097;22;20157;-44
2023/08/13 09:04:01;;;;;;;5.00;4.50;;;23.60;99.90;;;;;;6340945;22;20208;-41
2023/08/13 09:06:53;;;;;;;4.37;4.07;;;23.80;99.90;;;;;;6340819;22;20155;-43
2023/08/13 09:09:19;;;;;;;4.80;4.40;;;23.90;99.90;;;;;;6297163;22;20385;-42
2023/08/13 09:11:48;;;;;;;5.33;4.90;;;24.10;99.90;;;;;;6341255;22;20845;-44
2023/08/13 09:14:14;;;;;;;5.40;4.90;;;24.20;43.50;;;;;;6339849;22;20202;-43
2023/08/13 09:16:52;;;;;;;4.90;4.50;;;24.20;1.00;;;;;;6339859;22;20357;-41
2023/08/13 09:19:18;;;;;;;5.87;5.37;;;24.50;1.00;;;;;;6338224;22;20362;-40
2023/08/13 09:22:10;;;;;;;4.93;4.53;;;24.80;1.00;;;;;;6310034;22;20389;-42
2023/08/13 09:24:38;;;;;;;5.60;5.10;;;25.10;99.90;;;;;;6331383;22;20440;-40
2023/08/13 09:27:06;;;;;;;6.07;5.60;;;25.50;99.90;;;;;;6310875;22;20377;-40
2023/08/13 09:29:32;;;;;;;5.40;4.90;;;26.00;1.00;;;;;;6337417;22;20792;-42
2023/08/13 09:31:59;;;;;;;5.67;5.17;;;26.40;1.00;;;;;;6309636;22;20442;-40
2023/08/13 09:34:26;;;;;;;5.50;5.00;;;26.50;1.00;;;;;;6338243;22;20405;-42
2023/08/13 09:36:53;;;;;;;5.03;4.53;;;26.50;1.00;;;;;;6338720;22;20423;-42
2023/08/13 09:39:20;;;;;;;5.47;4.97;;;26.10;1.00;;;;;;6337377;22;20647;-41
2023/08/13 09:41:47;;;;;;;5.57;5.07;;;26.00;99.90;;;;;;6308495;22;20800;-42
2023/08/13 09:44:14;;;;;;;5.13;4.63;;;26.00;1.00;;;;;;6336368;22;20466;-41
2023/08/13 09:46:40;;;;;;;5.40;5.00;;;26.10;1.00;;;;;;6284697;22;20464;-42
2023/08/13 09:49:11;;;;;;;5.00;4.60;;;26.50;99.90;;;;;;6338469;22;20377;-42
2023/08/13 09:51:38;;;;;;;6.03;5.10;;;27.10;99.90;;;;;;6312205;22;20377;-42
2023/08/13 09:54:13;;;;;;;5.13;4.67;;;27.90;99.90;;;;;;6309953;22;20451;-41
2023/08/13 09:56:41;;;;;;;6.40;5.43;;;28.50;1.00;;;;;;6339254;22;20379;-41
2023/08/13 09:59:07;;;;;;;6.20;4.77;;;29.00;1.00;;;;;;6312430;22;20500;-41
2023/08/13 10:01:34;;;;;;;4.70;4.20;;;29.40;99.90;;;;;;6338918;22;20353;-38
2023/08/13 10:04:00;;;;;;;5.77;5.17;;;29.80;99.90;;;;;;6339357;22;20482;-42
2023/08/13 10:06:26;;;;;;;7.27;5.70;;;29.90;1.00;;;;;;6311585;22;20808;-39
2023/08/13 10:08:52;;;;;;;6.03;5.27;;;30.00;1.00;;;;;;6337947;22;20381;-40
2023/08/13 10:11:19;;;;;;;5.80;5.30;;;29.70;99.90;;;;;;6282856;22;20430;-39
2023/08/13 10:13:45;;;;;;;5.90;5.30;;;29.40;99.90;;;;;;6337374;22;20889;-41
2023/08/13 10:16:11;;;;;;;5.40;4.90;;;29.20;99.90;;;;;;6311299;22;20361;-40
2023/08/13 10:18:37;;;;;;;5.90;5.40;;;29.20;1.00;;;;;;6311358;22;20492;-40
2023/08/13 10:21:03;;;;;;;5.40;5.00;;;29.40;1.00;;;;;;6338790;22;20879;-39
2023/08/13 10:23:28;;;;;;;5.90;5.40;;;29.70;1.00;;;;;;6310823;22;20143;-41
2023/08/13 10:25:55;;;;;;;5.73;5.10;;;30.00;99.90;;;;;;6339160;22;20178;-39
2023/08/13 10:28:32;;;;;;;9.37;5.30;;;30.30;99.90;;;;;;6340536;22;20124;-43
2023/08/13 10:31:31;;;;;;;6.07;5.47;;;30.90;99.90;;;;;;6313208;22;20444;-39
2023/08/13 10:34:16;;;;;;;6.60;5.20;;;31.70;99.90;;;;;;6337927;22;20382;-40
2023/08/13 10:36:49;;;;;;;6.00;5.50;;;32.50;99.90;;;;;;6338159;22;20464;-41
2023/08/13 10:39:34;;;;;;;6.50;5.70;;;33.10;99.90;;;;;;6339137;22;20378;-39
2023/08/13 10:42:22;;;;;;;5.87;5.37;;;33.10;1.50;;;;;;6339372;22;20387;-42
2023/08/13 10:44:47;;;;;;;5.67;5.20;;;33.20;1.00;;;;;;6337944;22;20510;-40
2023/08/13 10:47:13;;;;;;;5.77;5.30;;;33.20;1.00;;;;;;6338824;22;20763;-41
2023/08/13 10:49:40;;;;;;;6.00;5.50;;;33.00;1.00;;;;;;6311577;22;20199;-43
2023/08/13 10:52:06;;;;;;;6.07;5.57;;;33.00;1.00;;;;;;6339109;22;20128;-42
2023/08/13 10:54:33;;;;;;;6.47;5.70;;;32.60;1.00;;;;;;6286788;22;20413;-40
2023/08/13 10:56:59;;;;;;;6.37;5.77;;;32.00;1.00;;;;;;6341377;22;20444;-43
2023/08/13 10:59:33;;;;;;;6.33;5.70;;;31.80;1.00;;;;;;6312764;22;20381;-40
2023/08/13 11:02:16;;;;;;;6.30;5.70;;;32.10;1.00;;;;;;6340010;22;20819;-40
2023/08/13 11:04:43;;;;;;;5.77;5.30;;;32.70;1.00;;;;;;6339638;22;20477;-40
2023/08/13 11:07:10;;;;;;;6.10;5.70;;;32.70;1.00;;;;;;6338344;22;20739;-41
2023/08/13 11:09:37;;;;;;;6.27;5.67;;;32.30;1.00;;;;;;6337265;22;20377;-40
2023/08/13 11:12:25;;;;;;;5.40;5.00;;;32.20;1.00;;;;;;6309272;22;20450;-41
2023/08/13 11:14:51;;;;;;;7.27;6.37;;;32.10;1.00;;;;;;6337261;22;20867;-39
2023/08/13 11:17:17;;;;;;;6.13;5.57;;;32.60;1.00;;;;;;6309857;22;20408;-39
2023/08/13 11:19:42;;;;;;;6.93;6.20;;;33.00;1.00;;;;;;6337942;22;20418;-40
2023/08/13 11:22:08;;;;;;;6.20;5.70;;;32.90;1.00;;;;;;6339252;22;20132;-41
2023/08/13 11:24:34;;;;;;;5.57;5.17;;;32.40;1.00;;;;;;6338539;22;20206;-44
2023/08/13 11:27:01;;;;;;;5.60;5.10;;;32.00;1.00;;;;;;6339668;22;20383;-40
2023/08/13 11:29:28;;;;;;;5.93;5.43;;;31.70;1.00;;;;;;6340279;22;20167;-41
2023/08/13 11:31:53;;;;;;;5.90;5.40;;;31.60;1.00;;;;;;6339795;22;20390;-39
2023/08/13 11:34:20;;;;;;;6.30;5.63;;;31.60;1.60;;;;;;6340091;22;20424;-42
2023/08/13 11:36:52;;;;;;;6.53;5.93;;;31.60;9.80;;;;;;6311734;22;20631;-41
2023/08/13 11:39:19;;;;;;;6.10;5.60;;;31.50;1.00;;;;;;6337129;22;20352;-40
2023/08/13 11:41:45;;;;;;;6.10;5.50;;;31.30;1.00;;;;;;6286296;22;20368;-42
2023/08/13 11:44:12;;;;;;;5.03;4.63;;;31.30;1.00;;;;;;6286018;22;20795;-43
2023/08/13 11:47:00;;;;;;;5.77;4.60;;;31.30;1.00;;;;;;6338769;22;20332;-43
2023/08/13 11:49:27;;;;;;;6.50;6.00;;;31.80;1.00;;;;;;6338646;22;20715;-42
2023/08/13 11:51:57;;;;;;;6.30;5.67;;;32.40;1.00;;;;;;6337882;22;20413;-40
2023/08/13 11:54:24;;;;;;;5.93;5.43;;;32.70;1.00;;;;;;6339199;22;20395;-39
2023/08/13 11:56:52;;;;;;;5.17;4.77;;;33.00;1.00;;;;;;6337681;22;20410;-41
2023/08/13 11:59:25;;;;;;;4.97;4.57;;;33.40;1.00;;;;;;6337522;22;20462;-41
2023/08/13 12:01:56;;;;;;;5.27;4.63;;;33.70;1.00;;;;;;6337794;22;20356;-41
2023/08/13 12:04:31;;;;;;;5.20;4.70;;;34.10;1.00;;;;;;6309978;22;20395;-43
2023/08/13 12:06:59;;;;;;;4.77;4.37;;;34.10;1.00;;;;;;6337007;22;20435;-43
2023/08/13 12:09:26;;;;;;;4.77;4.37;;;34.30;1.00;;;;;;6335925;22;20775;-42
2023/08/13 12:11:54;;;;;;;7.03;4.60;;;34.50;1.00;;;;;;6336369;22;20360;-43
2023/08/13 12:14:21;;;;;;;4.60;4.00;;;35.00;1.00;;;;;;6337339;22;20429;-44
2023/08/13 12:16:48;;;;;;;4.10;3.70;;;34.70;1.00;;;;;;6337433;22;20352;-41
2023/08/13 12:19:14;;;;;;;4.30;3.90;;;34.90;1.00;;;;;;6338752;22;20439;-42
2023/08/13 12:21:41;;;;;;;3.60;3.30;;;34.80;1.00;;;;;;6338350;22;20443;-43
2023/08/13 12:24:08;;;;;;;4.00;3.70;;;34.80;1.00;;;;;;6337930;22;20738;-42
2023/08/13 12:26:35;;;;;;;4.33;3.93;;;35.00;1.00;;;;;;6337545;22;20889;-42
2023/08/13 12:29:02;;;;;;;4.03;3.73;;;35.20;1.00;;;;;;6340447;22;20360;-40
2023/08/13 12:31:31;;;;;;;3.83;3.50;;;35.40;1.00;;;;;;6286134;22;20404;-42
2023/08/13 12:33:58;;;;;;;5.33;4.13;;;35.20;1.00;;;;;;6311500;22;20751;-41
2023/08/13 12:36:24;;;;;;;4.23;3.83;;;35.00;1.00;;;;;;6311319;22;20737;-43
2023/08/13 12:38:51;;;;;;;3.73;3.40;;;35.10;1.00;;;;;;6336720;22;20360;-42
2023/08/13 12:41:17;;;;;;;3.80;3.50;;;35.40;1.00;;;;;;6311795;22;20390;-42
2023/08/13 12:43:42;;;;;;;4.27;3.87;;;35.70;1.00;;;;;;6338383;22;20354;-40
2023/08/13 12:46:08;;;;;;;4.30;3.90;;;36.00;1.00;;;;;;6340957;22;20170;-39
2023/08/13 12:48:36;;;;;;;4.07;3.67;;;36.10;1.00;;;;;;6340119;22;20222;-42
2023/08/13 12:51:02;;;;;;;4.23;3.83;;;35.80;1.00;;;;;;6340429;22;20154;-40